Itapebi, Brazil
Current Conditions -  °F | °C
As of 7:00 PM on Thursday 18 Dec 2014 (Local Time) from SBPS Reporting Station
Overcast Overcast  
Wind Chill: 75°   Ceiling: 5000
Heat Index: 75°   Visibility: 6mi
Dew Point: 72°   Wind: 7mph
Humidity: 89%   Direction: 40°NE
Pressure: 29.85"   Gusts: NA
Location:  15.95°S, 39.53°W
Report Text: SBPS 182200Z 04006KT 9999 SCT020 BKN050 OVC100 24/22 Q1011
Loading
Personal Weather Stations






























Interactive Weather Map New forecast layout! Learn more

10-Day Weather Forecast

Advertisements
Track Severe Weather on mobile